createdAt,value
2018-07-19T01:22:08.839Z,32.80
2018-07-19T01:24:43.375Z,32.77
2018-07-19T01:27:15.311Z,32.98
2018-07-19T01:29:48.996Z,32.07
2018-07-19T01:32:21.381Z,32.36
2018-07-19T01:34:54.358Z,32.06
2018-07-19T01:37:27.849Z,32.15
2018-07-19T01:40:00.637Z,31.93
2018-07-19T01:42:35.310Z,32.84
2018-07-19T01:45:08.209Z,32.03
2018-07-19T01:47:41.904Z,32.56
2018-07-19T01:50:15.026Z,32.62
2018-07-19T01:52:46.512Z,32.74
2018-07-19T01:55:19.324Z,32.50
2018-07-19T01:57:50.841Z,32.54
2018-07-19T02:00:22.255Z,33.00
2018-07-19T02:02:53.498Z,32.29
2018-07-19T02:05:27.759Z,32.67
2018-07-19T02:07:58.971Z,32.60
2018-07-19T02:10:30.660Z,32.69
2018-07-19T02:13:01.736Z,32.96
2018-07-19T02:15:33.278Z,33.36
2018-07-19T02:18:05.575Z,33.63
2018-07-19T02:20:36.928Z,33.06
2018-07-19T02:23:09.222Z,33.32
2018-07-19T02:25:42.361Z,34.10
2018-07-19T02:28:14.356Z,34.27
2018-07-19T02:30:46.088Z,33.57
2018-07-19T02:33:17.455Z,33.84
2018-07-19T02:35:52.787Z,34.02
2018-07-19T02:38:29.287Z,33.96
2018-07-19T02:41:01.806Z,34.00
2018-07-19T02:43:34.272Z,34.61
2018-07-19T02:46:09.722Z,33.79
2018-07-19T02:48:41.448Z,34.79
2018-07-19T02:51:14.315Z,35.30
2018-07-19T02:53:45.964Z,35.19
2018-07-19T02:56:18.299Z,34.53
2018-07-19T02:58:55.190Z,35.26
2018-07-19T03:01:32.408Z,35.39
2018-07-19T03:04:04.749Z,34.96
2018-07-19T03:06:37.435Z,35.47
2018-07-19T03:09:11.012Z,35.53
2018-07-19T03:11:46.947Z,35.31
2018-07-19T03:14:23.053Z,35.01
2018-07-19T03:16:55.519Z,35.73
2018-07-19T03:19:28.880Z,35.67
2018-07-19T03:22:02.021Z,35.06
2018-07-19T03:24:33.431Z,35.13
2018-07-19T03:27:06.801Z,35.10
2018-07-19T03:29:39.267Z,35.18
2018-07-19T03:32:11.915Z,35.52
2018-07-19T03:34:43.965Z,36.22
2018-07-19T03:37:15.567Z,35.61
2018-07-19T03:39:46.933Z,35.62
2018-07-19T03:42:19.367Z,35.63
2018-07-19T03:44:53.761Z,35.55
2018-07-19T03:47:25.125Z,36.03
2018-07-19T03:49:57.366Z,35.46
2018-07-19T03:52:29.660Z,36.17
2018-07-19T03:55:00.984Z,35.86
2018-07-19T03:57:32.168Z,35.95
2018-07-19T04:00:05.913Z,36.30
2018-07-19T04:02:37.310Z,36.13
2018-07-19T04:05:08.676Z,36.43
2018-07-19T04:07:42.319Z,36.10
2018-07-19T04:10:13.984Z,36.40
2018-07-19T04:12:45.440Z,35.88
2018-07-19T04:15:17.613Z,36.09
2018-07-19T04:17:57.795Z,35.72
2018-07-19T04:20:30.689Z,35.61
2018-07-19T04:23:02.599Z,35.15
2018-07-19T04:25:34.252Z,34.71
2018-07-19T04:28:07.930Z,34.41
2018-07-19T04:30:40.633Z,33.51
2018-07-19T04:33:14.439Z,32.48
2018-07-19T04:35:49.811Z,32.42
2018-07-19T04:38:22.943Z,32.59
2018-07-19T04:40:54.806Z,31.92
2018-07-19T04:43:26.107Z,31.10
2018-07-19T04:45:58.344Z,30.77
2018-07-19T04:48:30.288Z,30.87
2018-07-19T04:51:03.831Z,30.60
2018-07-19T04:53:36.431Z,29.34
2018-07-19T04:56:09.475Z,29.36
2018-07-19T04:58:43.108Z,28.60
2018-07-19T05:01:15.533Z,27.76
2018-07-19T05:03:48.200Z,27.63
2018-07-19T05:06:20.589Z,27.39
2018-07-19T05:08:51.897Z,27.38
2018-07-19T05:11:23.744Z,26.61
2018-07-19T05:13:56.532Z,26.96
2018-07-19T05:16:30.691Z,26.24
2018-07-19T05:19:02.469Z,26.20
2018-07-19T05:21:36.898Z,26.54
2018-07-19T05:24:08.293Z,25.53
2018-07-19T05:26:42.171Z,25.67
2018-07-19T05:29:16.503Z,25.41
2018-07-19T05:31:48.524Z,24.58
2018-07-19T05:34:21.911Z,24.04
2018-07-19T05:36:53.460Z,24.14
2018-07-19T05:39:24.856Z,24.06
2018-07-19T05:41:56.279Z,24.00
2018-07-19T05:44:29.162Z,23.97
2018-07-19T05:47:01.642Z,23.56
2018-07-19T05:49:34.423Z,22.98
2018-07-19T05:52:05.844Z,23.20
2018-07-19T05:54:38.795Z,22.59
2018-07-19T05:57:10.681Z,22.17
2018-07-19T05:59:42.449Z,23.38
2018-07-19T06:02:15.206Z,23.10
2018-07-19T06:04:49.415Z,23.35
2018-07-19T06:07:21.555Z,22.89
2018-07-19T06:09:53.308Z,23.12
2018-07-19T06:12:26.608Z,22.18
2018-07-19T06:15:05.021Z,22.90
2018-07-19T06:17:39.697Z,22.83
2018-07-19T06:20:15.244Z,22.62
2018-07-19T06:22:47.664Z,22.83
2018-07-19T06:25:19.728Z,22.37
2018-07-19T06:27:54.516Z,23.49
2018-07-19T06:30:27.896Z,22.32
2018-07-19T06:33:02.510Z,22.06
2018-07-19T06:35:38.119Z,23.04
2018-07-19T06:38:12.863Z,22.80
2018-07-19T06:40:44.401Z,22.44
2018-07-19T06:43:17.641Z,22.30
2018-07-19T06:45:54.035Z,22.01
2018-07-19T06:48:26.381Z,22.24
2018-07-19T06:51:02.147Z,22.36
2018-07-19T06:53:34.408Z,22.11
2018-07-19T06:56:10.578Z,21.92
2018-07-19T06:58:43.261Z,21.93
2018-07-19T07:01:18.910Z,21.26
2018-07-19T07:03:51.894Z,21.20
2018-07-19T07:06:25.399Z,20.78
2018-07-19T07:09:01.597Z,20.95
2018-07-19T07:11:34.782Z,21.17
2018-07-19T07:14:10.673Z,21.10
2018-07-19T07:16:46.336Z,20.59
2018-07-19T07:19:25.006Z,19.82
2018-07-19T07:21:59.300Z,20.36
2018-07-19T07:24:33.692Z,20.07
2018-07-19T07:27:08.168Z,19.49
2018-07-19T07:29:44.192Z,19.69
2018-07-19T07:32:22.580Z,19.70
2018-07-19T07:35:05.358Z,19.48
2018-07-19T07:37:41.315Z,19.31
2018-07-19T07:40:17.272Z,18.78
2018-07-19T07:45:40.454Z,19.38
2018-07-19T07:48:14.630Z,18.95
2018-07-19T07:50:55.888Z,18.13
2018-07-19T07:53:40.921Z,18.26
2018-07-19T07:56:17.220Z,17.50
2018-07-19T07:58:51.013Z,18.26
2018-07-19T08:01:25.075Z,17.95
2018-07-19T08:04:01.591Z,18.09
2018-07-19T08:06:38.651Z,17.65
2018-07-19T08:09:12.479Z,18.84
2018-07-19T08:11:45.244Z,18.97
2018-07-19T08:14:20.711Z,18.04
2018-07-19T08:16:57.862Z,18.45
2018-07-19T08:19:34.897Z,17.99
2018-07-19T08:22:09.402Z,17.84
2018-07-19T08:24:45.090Z,18.27
2018-07-19T08:27:18.764Z,18.03
2018-07-19T08:29:53.989Z,16.95
2018-07-19T08:32:28.698Z,17.62
2018-07-19T08:35:12.158Z,18.61
2018-07-19T08:37:49.728Z,17.97
2018-07-19T08:40:24.549Z,17.93
2018-07-19T08:43:01.618Z,18.49
2018-07-19T08:45:39.841Z,18.06
2018-07-19T08:48:16.318Z,17.90
2018-07-19T08:50:51.256Z,17.66
2018-07-19T08:53:29.744Z,18.02
2018-07-19T08:58:57.820Z,17.90
2018-07-19T09:01:39.335Z,18.17
2018-07-19T09:04:27.059Z,17.87
2018-07-19T09:07:06.283Z,18.38
2018-07-19T09:09:46.058Z,18.24
2018-07-19T09:12:27.058Z,17.95
2018-07-19T09:15:09.539Z,18.96
2018-07-19T09:17:48.604Z,18.75
2018-07-19T09:20:22.921Z,18.38
2018-07-19T09:22:59.070Z,18.09
2018-07-19T09:25:40.656Z,18.19
2018-07-19T09:28:21.307Z,18.00
2018-07-19T09:30:57.769Z,18.17
2018-07-19T09:33:30.603Z,18.15
2018-07-19T09:36:02.316Z,18.25
2018-07-19T09:38:34.031Z,17.69
2018-07-19T09:41:07.448Z,18.47
2018-07-19T09:43:39.240Z,17.83
2018-07-19T09:46:16.279Z,18.00
2018-07-19T09:48:48.909Z,17.88
2018-07-19T09:51:23.945Z,17.82
2018-07-19T09:53:56.840Z,17.92
2018-07-19T09:56:28.470Z,17.98
2018-07-19T09:59:03.442Z,17.11
2018-07-19T10:01:39.485Z,17.80
2018-07-19T10:04:20.931Z,18.31
2018-07-19T10:06:53.494Z,17.62
2018-07-19T10:09:30.845Z,17.24
2018-07-19T10:12:07.576Z,17.33
2018-07-19T10:14:49.869Z,17.73
2018-07-19T10:17:28.145Z,16.60
2018-07-19T10:20:03.254Z,16.19
2018-07-19T10:22:39.405Z,17.57
2018-07-19T10:25:20.306Z,17.47
2018-07-19T10:27:52.943Z,17.34
2018-07-19T10:30:25.370Z,16.91
2018-07-19T10:32:59.203Z,17.03
2018-07-19T10:35:38.708Z,17.47
2018-07-19T10:38:14.136Z,17.07
2018-07-19T10:40:46.843Z,17.06
2018-07-19T10:43:23.384Z,18.35
2018-07-19T10:46:10.192Z,17.22
2018-07-19T10:48:53.498Z,17.87
2018-07-19T10:51:27.831Z,17.44
2018-07-19T10:54:02.557Z,17.32
2018-07-19T10:56:37.225Z,17.85
2018-07-19T10:59:17.075Z,17.11
2018-07-19T11:02:08.915Z,17.09
2018-07-19T11:04:41.902Z,16.43
2018-07-19T11:07:14.989Z,16.86
2018-07-19T11:09:46.689Z,16.31
2018-07-19T11:12:20.531Z,16.00
2018-07-19T11:14:58.683Z,15.64
2018-07-19T11:17:31.611Z,15.18
2018-07-19T11:20:08.123Z,15.97
2018-07-19T11:22:41.566Z,16.37
2018-07-19T11:25:14.852Z,15.96
2018-07-19T11:27:49.937Z,15.92
2018-07-19T11:30:25.260Z,15.58
2018-07-19T11:32:59.377Z,15.68
2018-07-19T11:35:31.967Z,15.93
2018-07-19T11:38:04.798Z,15.18
2018-07-19T11:40:36.864Z,15.32
2018-07-19T11:43:08.157Z,15.72
2018-07-19T11:45:42.372Z,15.35
2018-07-19T11:48:17.188Z,16.26
2018-07-19T11:50:50.299Z,16.03
2018-07-19T11:53:24.180Z,15.67
2018-07-19T11:55:57.077Z,15.45
2018-07-19T11:58:31.927Z,15.63
2018-07-19T12:01:06.563Z,15.53
2018-07-19T12:03:39.432Z,15.40
2018-07-19T12:06:18.641Z,15.18
2018-07-19T12:08:51.971Z,15.14
2018-07-19T12:11:32.291Z,14.93
2018-07-19T12:14:04.501Z,15.24
2018-07-19T12:16:38.293Z,14.96
2018-07-19T12:19:10.425Z,14.88
2018-07-19T12:21:44.317Z,14.85
2018-07-19T12:24:19.425Z,15.46
2018-07-19T12:26:53.786Z,14.63
2018-07-19T12:29:26.795Z,14.16
2018-07-19T12:31:58.330Z,13.92
2018-07-19T12:34:33.203Z,13.68
2018-07-19T12:37:07.234Z,13.73
2018-07-19T12:39:44.771Z,13.62
2018-07-19T12:42:19.293Z,14.36
2018-07-19T12:44:55.514Z,14.10
2018-07-19T12:47:30.233Z,14.09
2018-07-19T12:50:06.442Z,13.93
2018-07-19T12:52:41.254Z,13.73
2018-07-19T12:55:15.851Z,14.37
2018-07-19T12:57:51.524Z,14.08
2018-07-19T13:00:24.229Z,13.84
2018-07-19T13:02:59.329Z,13.79
2018-07-19T13:05:33.911Z,14.18
2018-07-19T13:08:06.962Z,14.02
2018-07-19T13:10:49.107Z,13.65
2018-07-19T13:13:24.150Z,14.39
2018-07-19T13:15:58.702Z,13.91
2018-07-19T13:18:32.240Z,13.83
2018-07-19T13:21:08.989Z,14.40
2018-07-19T13:23:55.539Z,13.76
2018-07-19T13:26:34.185Z,13.43
2018-07-19T13:29:10.539Z,13.68
2018-07-19T13:31:46.562Z,13.47
2018-07-19T13:34:21.810Z,13.15
2018-07-19T13:36:57.996Z,13.79
2018-07-19T13:39:32.794Z,12.91
2018-07-19T13:42:10.341Z,12.88
2018-07-19T13:44:52.430Z,13.23
2018-07-19T13:47:26.051Z,13.66
2018-07-19T13:50:04.902Z,12.64
2018-07-19T13:52:50.405Z,12.57
2018-07-19T13:55:23.724Z,13.13
2018-07-19T13:58:00.811Z,13.30
2018-07-19T14:00:41.332Z,13.11
2018-07-19T14:03:21.420Z,12.66
2018-07-19T14:05:55.808Z,12.02
2018-07-19T14:08:36.851Z,12.81
2018-07-19T14:16:49.249Z,12.24
2018-07-19T14:19:27.982Z,12.33
2018-07-19T14:22:02.136Z,12.42
2018-07-19T14:24:35.264Z,11.56
2018-07-19T14:27:08.012Z,12.06
2018-07-19T14:29:46.932Z,11.72
2018-07-19T14:32:23.600Z,12.05
2018-07-19T14:34:56.900Z,11.68
2018-07-19T14:37:32.503Z,12.18
2018-07-19T14:40:09.860Z,11.89
2018-07-19T14:42:49.405Z,12.03
2018-07-19T14:45:54.930Z,11.72
2018-07-19T14:54:43.423Z,11.91
2018-07-19T14:57:31.770Z,11.98
2018-07-19T15:03:50.067Z,12.04
2018-07-19T15:06:41.278Z,12.03
2018-07-19T15:09:23.188Z,11.27
2018-07-19T15:12:00.332Z,11.16
2018-07-19T15:14:40.785Z,11.70
2018-07-19T15:17:18.940Z,10.93
2018-07-19T15:20:01.855Z,11.68
2018-07-19T15:22:37.310Z,12.09
2018-07-19T15:25:10.929Z,11.52
2018-07-19T15:27:47.760Z,10.71
2018-07-19T15:33:24.292Z,11.96
2018-07-19T15:35:59.850Z,11.56
2018-07-19T15:38:34.327Z,12.08
2018-07-19T15:41:25.673Z,11.76
2018-07-19T15:44:07.605Z,11.42
2018-07-19T15:46:45.501Z,12.05
2018-07-19T15:49:24.808Z,11.36
2018-07-19T15:53:33.577Z,11.74
2018-07-19T15:56:28.726Z,11.89
2018-07-19T15:59:04.851Z,12.50
2018-07-19T16:01:44.130Z,11.76
2018-07-19T16:04:27.827Z,11.84
2018-07-19T16:07:20.159Z,11.82
2018-07-19T16:10:19.916Z,12.01
2018-07-19T16:12:56.606Z,11.54
2018-07-19T16:15:28.940Z,12.19
2018-07-19T16:18:05.790Z,11.98
2018-07-19T16:20:39.355Z,11.14
2018-07-19T16:23:12.085Z,11.92
2018-07-19T16:25:45.961Z,11.61
2018-07-19T16:28:21.870Z,11.64
2018-07-19T16:31:07.163Z,11.93
2018-07-19T16:36:56.105Z,11.85
2018-07-19T16:40:04.826Z,11.09
2018-07-19T16:42:59.611Z,11.79
2018-07-19T16:45:49.144Z,11.56
2018-07-19T16:48:32.484Z,11.94
2018-07-19T16:51:19.008Z,12.72
2018-07-19T16:57:00.748Z,12.00
2018-07-19T16:59:42.016Z,11.86
2018-07-19T17:02:29.440Z,12.09
2018-07-19T17:05:10.090Z,12.71
2018-07-19T17:07:56.789Z,11.81
2018-07-19T17:10:39.815Z,12.20
2018-07-19T17:16:28.575Z,12.04
2018-07-19T17:19:43.987Z,12.75
2018-07-19T17:22:55.553Z,13.39
2018-07-19T17:26:05.853Z,12.99
2018-07-19T17:29:18.525Z,12.59
2018-07-19T17:32:34.120Z,13.50
2018-07-19T17:35:47.934Z,12.91
2018-07-19T17:38:57.228Z,14.02
2018-07-19T17:42:07.589Z,13.78
2018-07-19T17:45:24.112Z,13.31
2018-07-19T17:48:40.423Z,13.61
2018-07-19T17:51:51.567Z,13.05
2018-07-19T17:55:03.456Z,13.85
2018-07-19T17:58:18.282Z,13.56
2018-07-19T18:01:28.822Z,13.95
2018-07-19T18:04:44.257Z,13.67
2018-07-19T18:07:56.904Z,14.28
2018-07-19T18:11:09.463Z,15.14
2018-07-19T18:14:20.098Z,15.23
2018-07-19T18:17:29.594Z,15.54
2018-07-19T18:20:41.039Z,16.30
2018-07-19T18:23:51.372Z,16.38
2018-07-19T18:27:01.859Z,16.54
2018-07-19T18:30:16.301Z,17.27
2018-07-19T18:33:26.793Z,17.00
2018-07-19T18:36:39.792Z,17.09
2018-07-19T18:39:50.266Z,17.83
2018-07-19T18:43:00.264Z,17.34
2018-07-19T18:46:12.020Z,17.67
2018-07-19T18:49:24.805Z,18.47
2018-07-19T18:52:36.427Z,18.18
2018-07-19T18:55:47.474Z,18.52
2018-07-19T18:58:58.350Z,19.19
2018-07-19T19:02:08.278Z,18.63
2018-07-19T19:05:19.063Z,18.82
2018-07-19T19:08:28.777Z,18.75
2018-07-19T19:11:40.292Z,18.81
2018-07-19T19:14:52.189Z,19.18
2018-07-19T19:18:02.362Z,19.79
2018-07-19T19:21:13.032Z,19.33
2018-07-19T19:24:23.549Z,20.41
2018-07-19T19:27:36.146Z,19.99
2018-07-19T19:30:46.547Z,20.61
2018-07-19T19:33:58.068Z,21.28
2018-07-19T19:37:09.123Z,20.56
2018-07-19T19:40:21.357Z,21.21
2018-07-19T19:43:30.518Z,22.00
2018-07-19T19:46:39.013Z,22.89
2018-07-19T19:49:48.235Z,23.16
2018-07-19T19:53:00.133Z,23.76
2018-07-19T19:56:11.242Z,23.31
2018-07-19T19:59:22.597Z,24.04
2018-07-19T20:02:34.835Z,23.34
2018-07-19T20:05:45.045Z,23.39
2018-07-19T20:08:57.042Z,24.04
2018-07-19T20:12:09.228Z,24.46
2018-07-19T20:15:19.607Z,24.44
2018-07-19T20:18:32.353Z,24.55
2018-07-19T20:21:45.754Z,24.03
2018-07-19T20:24:55.410Z,24.32
2018-07-19T20:28:04.498Z,24.08
2018-07-19T20:31:15.415Z,24.11
2018-07-19T20:34:25.823Z,24.85
2018-07-19T20:37:38.190Z,24.92
2018-07-19T20:40:49.182Z,25.27
2018-07-19T20:43:57.486Z,24.84
2018-07-19T20:47:08.050Z,24.77
2018-07-19T20:50:17.904Z,24.46
2018-07-19T20:53:27.392Z,25.24
2018-07-19T20:56:37.272Z,25.34
2018-07-19T20:59:46.279Z,25.00
2018-07-19T21:02:56.703Z,25.22
2018-07-19T21:06:08.726Z,25.14
2018-07-19T21:09:22.725Z,25.27
2018-07-19T21:12:36.090Z,25.60
2018-07-19T21:15:49.441Z,25.51
2018-07-19T21:19:03.028Z,25.45
2018-07-19T21:22:13.305Z,26.29
2018-07-19T21:25:25.863Z,26.12
2018-07-19T21:28:36.151Z,25.70
2018-07-19T21:31:46.657Z,25.27
2018-07-19T21:34:56.496Z,25.86
2018-07-19T21:38:08.685Z,26.08
2018-07-19T21:41:18.332Z,25.98
2018-07-19T21:44:29.465Z,25.88
2018-07-19T21:47:40.870Z,26.04
2018-07-19T21:50:52.284Z,25.52
2018-07-19T21:54:02.323Z,25.46
2018-07-19T21:57:10.846Z,25.51
2018-07-19T22:00:22.915Z,25.53
2018-07-19T22:03:31.547Z,25.75
2018-07-19T22:06:41.635Z,25.44
2018-07-19T22:09:51.589Z,25.31
2018-07-19T22:12:59.441Z,25.46
2018-07-19T22:16:11.798Z,25.32
2018-07-19T22:19:21.219Z,26.12
2018-07-19T22:22:31.657Z,25.62
2018-07-19T22:25:42.062Z,25.32
2018-07-19T22:28:55.963Z,26.26
2018-07-19T22:32:09.209Z,26.21
2018-07-19T22:35:18.320Z,25.91
2018-07-19T22:38:29.100Z,25.47
2018-07-19T22:41:39.168Z,25.81
2018-07-19T22:44:48.217Z,25.47
2018-07-19T22:47:59.550Z,26.08
2018-07-19T22:51:09.848Z,25.86
2018-07-19T22:54:18.295Z,25.89
2018-07-19T22:57:27.773Z,26.35
2018-07-19T23:00:39.139Z,26.50
2018-07-19T23:03:48.228Z,26.43
2018-07-19T23:06:55.709Z,26.57
2018-07-19T23:10:04.057Z,26.30
2018-07-19T23:13:13.684Z,26.95
2018-07-19T23:16:23.332Z,27.51
2018-07-19T23:19:33.529Z,26.48
2018-07-19T23:22:46.157Z,27.51
2018-07-19T23:25:55.542Z,27.40
2018-07-19T23:29:04.957Z,27.38
2018-07-19T23:32:14.253Z,27.21
2018-07-19T23:35:23.709Z,28.13
2018-07-19T23:38:42.301Z,27.57
2018-07-19T23:41:56.171Z,28.07
2018-07-19T23:46:07.240Z,28.27
2018-07-19T23:49:16.647Z,29.13
2018-07-19T23:52:24.862Z,28.34
2018-07-19T23:55:33.073Z,28.40
2018-07-19T23:58:43.208Z,28.79
